Aominesanmaru No.12 — JH3332 — position and weather

sailwx.info

Track history (hours):
 
Tides and Currents Weather Stations Pressure Air Temp Water Temp Dewpoint Dewpoint Depression Visibility Wind Speed Wind Dir Waves Ship Positions

Aominesanmaru No.12

Last reported at 2017-Oct-19 05:55 UTC. Time now 2017-Oct-19 22:06 UTC.
Position N 35°29' E 139°42'.

Length 60 m.

Type: Tanker. MMSI: 431008217.

Date/timePositionNaut miles runAvg speedWind from/ knotsBaromVisibWave heightAir tempDewpointWater temp
2017-Oct-19 05:55N 35°29' E 139°42'1 1.3
2017-Oct-19 05:01N 35°28' E 139°40'0 0.0
2017-Oct-19 04:49N 35°28' E 139°40'0 0.0
2017-Oct-19 04:13N 35°28' E 139°40'1 4.2
2017-Oct-19 03:54N 35°27' E 139°41'  
2017-Oct-16 05:42N 35°29' E 139°42'5 1.2
2017-Oct-16 01:12N 35°24' E 139°38'0 0.1
2017-Oct-16 00:48N 35°24' E 139°38'0 0.1
2017-Oct-16 00:27N 35°24' E 139°38'0 0.0
2017-Oct-16 00:00N 35°24' E 139°38'0 0.1
2017-Oct-15 23:27N 35°24' E 139°38'0 0.5
2017-Oct-15 22:59N 35°24' E 139°38'3 6.2
2017-Oct-15 22:30N 35°24' E 139°42'4 0.2
2017-Oct-15 03:19N 35°28' E 139°40'5 0.1
2017-Oct-13 01:56N 35°23' E 139°40'2 4.1
2017-Oct-13 01:29N 35°24' E 139°38'0 0.0
2017-Oct-13 01:00N 35°24' E 139°38'0 0.1
2017-Oct-12 23:03N 35°24' E 139°38'0 4.4
2017-Oct-12 23:01N 35°24' E 139°39'4 5.3
2017-Oct-12 22:15N 35°26' E 139°43'4 0.2
2017-Oct-12 04:24N 35°24' E 139°38'1 3.8
2017-Oct-12 04:00N 35°24' E 139°40'2 0.0
2017-Oct-10 00:11N 35°24' E 139°38'0 0.1
2017-Oct-09 23:20N 35°24' E 139°38'1 1.5
2017-Oct-09 22:55N 35°24' E 139°39'2 5.9
2017-Oct-09 22:29N 35°24' E 139°42'  
Track history (hours):
 
Tides and Currents Weather Stations Pressure Air Temp Water Temp Dewpoint Dewpoint Depression Visibility Wind Speed Wind Dir Waves Ship Positions

Aominesanmaru No.12

Last reported at 2017-Oct-19 05:55 UTC. Time now 2017-Oct-19 22:06 UTC.
Position N 35°29' E 139°42'.

Length 60 m.

Type: Tanker. MMSI: 431008217.

Date/timePositionNaut miles runAvg speedWind from/ knotsBaromVisibWave heightAir tempDewpointWater temp
2017-Oct-19 05:55N 35°29' E 139°42'1 1.3
2017-Oct-19 05:01N 35°28' E 139°40'0 0.0
2017-Oct-19 04:49N 35°28' E 139°40'0 0.0
2017-Oct-19 04:13N 35°28' E 139°40'1 4.2
2017-Oct-19 03:54N 35°27' E 139°41'  
2017-Oct-16 05:42N 35°29' E 139°42'5 1.2
2017-Oct-16 01:12N 35°24' E 139°38'0 0.1
2017-Oct-16 00:48N 35°24' E 139°38'0 0.1
2017-Oct-16 00:27N 35°24' E 139°38'0 0.0
2017-Oct-16 00:00N 35°24' E 139°38'0 0.1
2017-Oct-15 23:27N 35°24' E 139°38'0 0.5
2017-Oct-15 22:59N 35°24' E 139°38'3 6.2
2017-Oct-15 22:30N 35°24' E 139°42'4 0.2
2017-Oct-15 03:19N 35°28' E 139°40'5 0.1
2017-Oct-13 01:56N 35°23' E 139°40'2 4.1
2017-Oct-13 01:29N 35°24' E 139°38'0 0.0
2017-Oct-13 01:00N 35°24' E 139°38'0 0.1
2017-Oct-12 23:03N 35°24' E 139°38'0 4.4
2017-Oct-12 23:01N 35°24' E 139°39'4 5.3
2017-Oct-12 22:15N 35°26' E 139°43'4 0.2
2017-Oct-12 04:24N 35°24' E 139°38'1 3.8
2017-Oct-12 04:00N 35°24' E 139°40'2 0.0
2017-Oct-10 00:11N 35°24' E 139°38'0 0.1
2017-Oct-09 23:20N 35°24' E 139°38'1 1.5
2017-Oct-09 22:55N 35°24' E 139°39'2 5.9
2017-Oct-09 22:29N 35°24' E 139°42'  

Dump ship's entire track history